Time;durP1;ratioP1;P1;durP2;ratioP2;P2;SDS_P1;SDS_P2;PMS_P1;PMS_P2;Temp;Humidity;BMP_temperature;BMP_pressure;BME280_temperature;BME280_humidity;BME280_pressure;Samples;Min_cycle;Max_cycle;Signal;HPM_P1;HPM_P2
2021/10/31 00:02:12;;;;;;;;;5.50;5.25;;;;;21.46;46.31;100176.59;5031361;28;45349;-58
2021/10/31 00:04:37;;;;;;;;;4.00;4.00;;;;;21.44;46.23;100176.69;5014231;28;47544;-60
2021/10/31 00:07:03;;;;;;;;;4.00;4.00;;;;;21.44;46.15;100162.69;4997548;28;45445;-54
2021/10/31 00:09:29;;;;;;;;;6.00;5.00;;;;;21.44;46.26;100167.97;5015870;28;45348;-58
2021/10/31 00:11:54;;;;;;;;;5.00;4.00;;;;;21.41;46.41;100169.00;5015972;28;45331;-59
2021/10/31 00:14:20;;;;;;;;;7.00;5.75;;;;;21.42;46.70;100159.31;5017044;28;45418;-61
2021/10/31 00:16:45;;;;;;;;;3.50;3.50;;;;;21.42;46.42;100161.94;5019119;28;45597;-62
2021/10/31 00:19:11;;;;;;;;;4.00;4.00;;;;;21.40;46.49;100166.47;5019533;28;45659;-61
2021/10/31 00:21:36;;;;;;;;;4.00;4.00;;;;;21.36;46.54;100154.44;5019313;28;45663;-62
2021/10/31 00:24:02;;;;;;;;;5.00;5.00;;;;;21.40;46.69;100161.19;5019274;28;46307;-60
2021/10/31 00:26:27;;;;;;;;;6.00;5.00;;;;;21.38;46.24;100161.31;5019238;28;45398;-59
2021/10/31 00:28:52;;;;;;;;;6.00;4.00;;;;;21.39;46.42;100162.16;5034907;28;45282;-48
2021/10/31 00:31:18;;;;;;;;;3.75;3.75;;;;;21.38;46.19;100165.75;5019948;28;45168;-60
2021/10/31 00:33:43;;;;;;;;;5.50;4.00;;;;;21.37;46.31;100158.78;5034114;28;47996;-57
2021/10/31 00:36:08;;;;;;;;;6.00;4.25;;;;;21.38;46.64;100157.81;5018849;28;45455;-62
2021/10/31 00:38:34;;;;;;;;;4.25;4.25;;;;;21.37;46.40;100161.41;5034176;28;45306;-61
2021/10/31 00:41:00;;;;;;;;;2.00;2.00;;;;;21.35;46.45;100163.31;5019205;28;45420;-60
2021/10/31 00:43:25;;;;;;;;;5.00;4.00;;;;;21.35;46.44;100166.81;5018802;28;45452;-61
2021/10/31 00:45:50;;;;;;;;;4.50;4.00;;;;;21.36;46.71;100175.53;5034488;28;45338;-62
2021/10/31 00:48:16;;;;;;;;;5.00;4.00;;;;;21.32;46.27;100164.38;5018785;28;45203;-59
2021/10/31 00:50:43;;;;;;;;;6.50;5.00;;;;;21.34;46.45;100173.00;5018849;28;45421;-61
2021/10/31 00:53:08;;;;;;;;;4.00;4.00;;;;;21.35;46.64;100173.84;5018639;28;45996;-62
2021/10/31 00:55:34;;;;;;;;;5.00;5.00;;;;;21.34;46.27;100172.16;5018733;28;45313;-62
2021/10/31 00:58:00;;;;;;;;;4.00;4.00;;;;;21.33;46.35;100168.69;5018742;28;45438;-59
2021/10/31 01:00:26;;;;;;;;;3.25;3.25;;;;;21.31;46.36;100155.63;5018856;28;45365;-62
2021/10/31 01:02:52;;;;;;;;;5.00;5.00;;;;;21.31;46.38;100160.91;5018778;28;46587;-62
2021/10/31 01:05:26;;;;;;;;;4.00;4.00;;;;;21.31;46.23;100158.25;5018200;28;45458;-62
2021/10/31 01:08:12;;;;;;;;;3.00;3.00;;;;;21.31;46.66;100150.34;5019100;28;45651;-58
2021/10/31 01:10:50;;;;;;;;;4.00;3.25;;;;;21.30;46.12;100148.66;5018885;28;45402;-59
2021/10/31 01:13:44;;;;;;;;;9.00;4.00;;;;;21.29;46.43;100149.63;5018462;28;46387;-48
2021/10/31 01:16:34;;;;;;;;;3.50;3.00;;;;;21.30;46.63;100148.66;5018346;28;45428;-56
2021/10/31 01:19:27;;;;;;;;;2.00;2.00;;;;;21.29;46.13;100148.75;5018315;28;45479;-51
2021/10/31 01:22:15;;;;;;;;;3.75;3.75;;;;;21.27;46.49;100146.25;5018576;28;45539;-45
2021/10/31 01:25:23;;;;;;;;;4.75;3.00;;;;;21.28;46.34;100145.28;5018037;28;46423;-47
2021/10/31 01:28:08;;;;;;;;;5.00;3.50;;;;;21.26;46.52;100144.56;5010449;28;45782;-61
2021/10/31 01:31:03;;;;;;;;;3.00;3.00;;;;;21.26;46.42;100147.19;5018348;28;45290;-60
2021/10/31 01:34:11;;;;;;;;;3.25;3.25;;;;;21.24;46.40;100146.44;5018457;28;45297;-60
2021/10/31 01:36:54;;;;;;;;;3.00;3.00;;;;;21.26;46.56;100135.81;5017188;28;46448;-61
2021/10/31 01:39:26;;;;;;;;;4.00;4.00;;;;;21.23;46.57;100134.22;5018207;28;45385;-61
2021/10/31 01:42:16;;;;;;;;;4.75;3.75;;;;;21.21;46.43;100130.88;5018377;28;45454;-62
2021/10/31 01:44:44;;;;;;;;;6.00;4.25;;;;;21.23;46.45;100131.56;5000134;28;45369;-61
2021/10/31 01:47:22;;;;;;;;;4.25;4.25;;;;;21.22;46.56;100121.16;5017514;28;46539;-59
2021/10/31 01:50:10;;;;;;;;;3.75;3.75;;;;;21.20;46.45;100118.63;5017987;28;45266;-61
2021/10/31 01:52:40;;;;;;;;;3.00;3.00;;;;;21.23;46.33;100113.13;4980590;28;45930;-62
2021/10/31 01:55:13;;;;;;;;;3.75;3.75;;;;;21.21;46.77;100114.19;5017907;28;45409;-60
2021/10/31 01:57:43;;;;;;;;;4.00;3.00;;;;;21.21;46.35;100115.06;5017478;28;46364;-61
2021/10/31 02:00:13;;;;;;;;;2.00;2.00;;;;;21.21;46.18;100104.50;5017540;28;45488;-57
2021/10/31 02:02:42;;;;;;;;;4.00;3.00;;;;;21.20;46.10;100110.72;5017706;28;45461;-61
2021/10/31 02:05:09;;;;;;;;;5.75;4.75;;;;;21.20;46.37;100108.09;5017680;28;45397;-62
2021/10/31 02:07:41;;;;;;;;;3.25;3.25;;;;;21.16;46.18;100098.72;5017474;28;45326;-61
2021/10/31 02:10:09;;;;;;;;;5.25;3.25;;;;;21.18;46.13;100102.09;5017515;28;45814;-62
2021/10/31 02:12:36;;;;;;;;;2.75;2.75;;;;;21.19;46.71;100101.13;5017071;28;45362;-62
2021/10/31 02:15:04;;;;;;;;;4.50;4.50;;;;;21.19;46.17;100100.28;5017762;28;45376;-62
2021/10/31 02:17:31;;;;;;;;;3.25;3.25;;;;;21.20;46.43;100108.09;5017453;28;46544;-62
2021/10/31 02:19:58;;;;;;;;;4.50;3.50;;;;;21.17;46.37;100103.84;5017736;28;45773;-62
2021/10/31 02:22:26;;;;;;;;;5.50;3.75;;;;;21.17;46.21;100103.84;5017643;28;45371;-60
2021/10/31 02:24:52;;;;;;;;;4.50;3.25;;;;;21.16;46.71;100099.56;4999902;28;45447;-59
2021/10/31 02:27:20;;;;;;;;;3.25;3.25;;;;;21.16;46.17;100102.19;5017247;28;46388;-60
2021/10/31 02:30:04;;;;;;;;;3.75;2.50;;;;;21.17;46.25;100097.75;5017192;28;45862;-59
2021/10/31 02:32:31;;;;;;;;;2.50;2.50;;;;;21.16;46.59;100096.06;5017217;28;45396;-61
2021/10/31 02:34:58;;;;;;;;;4.25;3.50;;;;;21.16;46.37;100099.56;5017638;28;45618;-61
2021/10/31 02:37:25;;;;;;;;;3.50;3.50;;;;;21.14;46.33;100090.91;5016378;28;45656;-62
2021/10/31 02:39:51;;;;;;;;;3.50;3.50;;;;;21.14;46.53;100088.28;5017053;28;45275;-56
2021/10/31 02:42:16;;;;;;;;;2.75;2.75;;;;;21.14;46.19;100096.19;5017100;28;45267;-48
2021/10/31 02:44:42;;;;;;;;;4.50;3.25;;;;;21.14;46.40;100082.16;5017282;28;45305;-55
2021/10/31 02:47:16;;;;;;;;;4.00;4.00;;;;;21.12;46.34;100071.72;5016748;28;46516;-50
2021/10/31 02:49:42;;;;;;;;;3.00;3.00;;;;;21.12;46.15;100057.69;5016932;28;45381;-44
2021/10/31 02:52:20;;;;;;;;;4.00;4.00;;;;;21.13;46.53;100062.88;5016864;28;45629;-56
2021/10/31 02:55:11;;;;;;;;;3.50;3.50;;;;;21.11;46.46;100056.88;5016831;28;45427;-57
2021/10/31 02:57:42;;;;;;;;;3.25;3.25;;;;;21.10;46.50;100054.34;5016873;28;46846;-52
2021/10/31 03:00:12;;;;;;;;;4.00;3.00;;;;;21.10;46.46;100054.34;5016261;28;45239;-56
2021/10/31 03:02:38;;;;;;;;;2.50;2.50;;;;;21.09;46.52;100047.41;5017002;28;45428;-51
2021/10/31 03:05:04;;;;;;;;;5.00;4.00;;;;;21.10;46.56;100042.00;5016808;28;45512;-58
2021/10/31 03:07:30;;;;;;;;;3.00;3.00;;;;;21.10;46.59;100049.09;5016674;28;47242;-53
2021/10/31 03:09:55;;;;;;;;;3.00;3.00;;;;;21.10;46.50;100044.66;5016988;28;45775;-49
2021/10/31 03:12:20;;;;;;;;;3.00;3.00;;;;;21.08;46.34;100040.44;5016355;28;45389;-54
2021/10/31 03:14:46;;;;;;;;;2.50;2.50;;;;;21.08;46.36;100030.72;5016704;28;45574;-55
2021/10/31 03:17:12;;;;;;;;;4.25;4.25;;;;;21.08;46.14;100022.00;5016351;28;45634;-59
2021/10/31 03:19:38;;;;;;;;;3.25;3.25;;;;;21.07;46.54;100012.41;4998613;28;45380;-45
2021/10/31 03:22:05;;;;;;;;;3.00;3.00;;;;;21.07;46.64;100013.22;4998821;28;45373;-54
2021/10/31 03:24:30;;;;;;;;;4.00;3.00;;;;;21.08;46.70;100014.09;5016678;28;45534;-46
2021/10/31 03:26:56;;;;;;;;;3.00;3.00;;;;;21.07;46.50;100017.69;5016283;28;46796;-61
2021/10/31 03:29:24;;;;;;;;;5.25;3.25;;;;;21.04;46.15;100008.22;4998185;28;45359;-51
2021/10/31 03:31:50;;;;;;;;;3.50;3.50;;;;;21.07;46.41;100015.03;5016375;28;45413;-59
2021/10/31 03:34:15;;;;;;;;;2.50;2.50;;;;;21.04;46.45;100009.97;4998835;28;45449;-61
2021/10/31 03:36:41;;;;;;;;;4.00;4.00;;;;;21.05;46.31;100003.75;5016297;28;45435;-58
2021/10/31 03:39:07;;;;;;;;;3.25;3.25;;;;;21.04;46.25;100008.22;5016387;28;45421;-59
2021/10/31 03:41:32;;;;;;;;;2.50;2.50;;;;;21.03;46.53;100005.66;5015995;28;45373;-46
2021/10/31 03:43:58;;;;;;;;;3.00;3.00;;;;;21.04;46.55;100002.06;5016745;28;45583;-51
2021/10/31 03:46:23;;;;;;;;;3.75;3.75;;;;;21.03;46.27;100000.38;5016069;28;45449;-57
2021/10/31 03:48:48;;;;;;;;;3.00;3.00;;;;;21.03;46.77;100005.66;5031307;28;45959;-56
2021/10/31 03:51:14;;;;;;;;;4.75;3.50;;;;;21.03;46.46;100000.38;5016110;28;45918;-54
2021/10/31 03:53:39;;;;;;;;;3.00;3.00;;;;;21.03;46.60;100010.94;5016158;28;45408;-56
2021/10/31 03:56:05;;;;;;;;;2.25;2.25;;;;;21.01;46.46;100006.59;5015926;28;45334;-56
2021/10/31 03:58:30;;;;;;;;;2.25;2.25;;;;;21.00;46.24;99996.19;4998438;28;45345;-55
2021/10/31 04:00:56;;;;;;;;;2.00;2.00;;;;;21.01;46.61;99997.88;5016145;28;45395;-60
2021/10/31 04:03:21;;;;;;;;;3.75;3.00;;;;;21.00;46.35;99996.19;5015906;28;45632;-60
2021/10/31 04:05:46;;;;;;;;;3.50;3.50;;;;;20.99;46.08;99990.09;5015817;28;45396;-61
2021/10/31 04:08:12;;;;;;;;;3.00;3.00;;;;;20.99;46.33;99990.09;5015902;28;45211;-53
2021/10/31 04:10:38;;;;;;;;;5.25;3.50;;;;;20.97;46.17;99986.72;5015623;28;45359;-55
2021/10/31 04:13:03;;;;;;;;;2.75;2.75;;;;;20.98;46.60;99975.22;5015845;28;45572;-60
2021/10/31 04:15:28;;;;;;;;;2.25;2.00;;;;;20.98;46.32;99969.09;5015891;28;46237;-53
2021/10/31 04:17:54;;;;;;;;;3.75;3.50;;;;;20.97;46.16;99973.53;5015624;28;45428;-56
2021/10/31 04:20:20;;;;;;;;;3.00;3.00;;;;;20.97;46.36;99973.53;5015703;28;45378;-58
2021/10/31 04:22:46;;;;;;;;;5.00;4.00;;;;;20.97;46.28;99964.78;4998051;28;45408;-52
2021/10/31 04:25:12;;;;;;;;;2.75;2.75;;;;;20.95;46.57;99964.91;5015546;28;47477;-50
2021/10/31 04:27:37;;;;;;;;;3.00;3.00;;;;;20.96;46.09;99963.97;4997683;28;45585;-57
2021/10/31 04:30:05;;;;;;;;;3.00;2.25;;;;;20.96;46.36;99956.06;5016143;28;45310;-56
2021/10/31 04:32:30;;;;;;;;;3.25;2.75;;;;;20.95;46.47;99959.63;5016036;28;45384;-51
2021/10/31 04:34:56;;;;;;;;;3.00;3.00;;;;;20.95;46.44;99962.28;5015499;28;46251;-50
2021/10/31 04:37:21;;;;;;;;;3.50;3.50;;;;;20.95;46.70;99962.28;5015296;28;45325;-57
2021/10/31 04:39:48;;;;;;;;;3.00;2.25;;;;;20.94;46.25;99952.69;5015275;28;45396;-56
2021/10/31 04:42:13;;;;;;;;;2.75;2.75;;;;;20.93;46.46;99950.16;5015549;28;45577;-60
2021/10/31 04:44:39;;;;;;;;;3.25;3.25;;;;;20.92;46.24;99957.22;5015392;28;45769;-60
2021/10/31 04:47:05;;;;;;;;;4.00;4.00;;;;;20.93;46.40;99958.91;5015253;28;45436;-48
2021/10/31 04:49:31;;;;;;;;;3.25;3.25;;;;;20.91;46.03;99958.16;5015889;28;45349;-59
2021/10/31 04:51:57;;;;;;;;;2.00;2.00;;;;;20.91;46.55;99959.97;5015417;28;45362;-48
2021/10/31 04:54:23;;;;;;;;;3.75;3.75;;;;;20.91;46.41;99952.91;5015049;28;46457;-57
2021/10/31 04:56:50;;;;;;;;;3.50;3.50;;;;;20.92;46.57;99944.03;5015191;28;45861;-59
2021/10/31 04:59:15;;;;;;;;;2.25;2.25;;;;;20.91;46.46;99929.19;5015343;28;45403;-59
2021/10/31 05:01:41;;;;;;;;;3.00;3.00;;;;;20.88;46.32;99925.94;5018651;28;45476;-59
2021/10/31 05:04:06;;;;;;;;;3.50;2.75;;;;;20.89;46.65;99917.09;5018205;28;45577;-53
2021/10/31 05:06:32;;;;;;;;;4.00;3.00;;;;;20.90;46.28;99919.59;5018717;28;45243;-57
2021/10/31 05:08:57;;;;;;;;;2.75;2.75;;;;;20.89;46.15;99912.66;5018434;28;45722;-57
2021/10/31 05:11:23;;;;;;;;;3.00;3.00;;;;;20.88;46.51;99903.09;5018745;28;45606;-60
2021/10/31 05:13:48;;;;;;;;;2.00;2.00;;;;;20.88;46.65;99891.69;5018354;28;45446;-54
2021/10/31 05:16:14;;;;;;;;;2.75;2.75;;;;;20.87;46.32;99885.59;5018134;28;45415;-56
2021/10/31 05:18:40;;;;;;;;;3.00;3.00;;;;;20.88;46.56;99884.66;5018259;28;45436;-60
2021/10/31 05:21:06;;;;;;;;;3.00;2.75;;;;;20.85;46.31;99882.22;5018875;28;45864;-55
2021/10/31 05:23:32;;;;;;;;;2.75;2.75;;;;;20.86;46.44;99883.91;5000779;28;46820;-56
2021/10/31 05:25:57;;;;;;;;;4.00;4.00;;;;;20.87;46.74;99872.44;5018168;28;45362;-59
2021/10/31 05:28:24;;;;;;;;;3.75;3.00;;;;;20.88;46.34;99871.47;5018368;28;45361;-57
2021/10/31 05:30:50;;;;;;;;;2.50;2.00;;;;;20.87;46.27;99869.81;5033789;28;45589;-54
2021/10/31 05:33:17;;;;;;;;;3.00;3.00;;;;;20.87;46.56;99864.53;5018108;28;45674;-53
2021/10/31 05:35:43;;;;;;;;;2.25;2.00;;;;;20.86;46.24;99854.94;5017965;28;45469;-50
2021/10/31 05:38:10;;;;;;;;;3.75;3.75;;;;;20.85;46.68;99851.47;5018257;28;45357;-57
2021/10/31 05:40:35;;;;;;;;;2.75;2.75;;;;;20.86;46.55;99857.59;5018702;28;45402;-60
2021/10/31 05:43:01;;;;;;;;;4.00;4.00;;;;;20.84;46.42;99860.31;5017920;28;45445;-51
2021/10/31 05:45:26;;;;;;;;;5.50;3.25;;;;;20.83;46.45;99852.53;5017960;28;45270;-60
2021/10/31 05:47:53;;;;;;;;;3.50;3.50;;;;;20.84;46.59;99843.69;5033436;28;45347;-56
2021/10/31 05:50:19;;;;;;;;;3.00;3.00;;;;;20.82;46.44;99830.63;5018034;28;45454;-53
2021/10/31 05:52:45;;;;;;;;;3.00;3.00;;;;;20.83;46.58;99844.63;5017492;28;46260;-59
2021/10/31 05:55:13;;;;;;;;;3.50;3.00;;;;;20.84;46.72;99843.69;5017695;28;45754;-60
2021/10/31 05:57:39;;;;;;;;;3.00;2.00;;;;;20.82;46.42;99835.91;5017878;28;45562;-49
2021/10/31 06:00:07;;;;;;;;;3.75;3.75;;;;;20.82;46.41;99827.13;5018439;28;45275;-54
2021/10/31 06:02:33;;;;;;;;;3.00;3.00;;;;;20.83;46.14;99831.47;5017631;28;47025;-58
2021/10/31 06:04:59;;;;;;;;;2.50;2.50;;;;;20.82;46.77;99827.13;5017617;28;45342;-54
2021/10/31 06:07:26;;;;;;;;;2.25;2.25;;;;;20.82;46.79;99824.50;5017607;28;45319;-51
2021/10/31 06:09:52;;;;;;;;;3.25;3.25;;;;;20.82;46.36;99820.09;5017843;28;45634;-53
2021/10/31 06:12:18;;;;;;;;;3.00;3.00;;;;;20.82;46.89;99808.72;5016251;28;46537;-61
2021/10/31 06:14:43;;;;;;;;;1.00;1.00;;;;;20.81;46.73;99802.59;5017602;28;45436;-55
2021/10/31 06:17:09;;;;;;;;;3.00;3.00;;;;;20.80;46.47;99800.06;5017602;28;45412;-53
2021/10/31 06:19:35;;;;;;;;;4.00;4.00;;;;;20.81;46.64;99810.50;5017867;28;45266;-57
2021/10/31 06:22:01;;;;;;;;;3.75;3.75;;;;;20.82;46.68;99803.44;5017096;28;47138;-57
2021/10/31 06:24:26;;;;;;;;;4.00;3.00;;;;;20.80;46.38;99805.34;5017367;28;45995;-60
2021/10/31 06:26:52;;;;;;;;;3.50;2.00;;;;;20.81;46.11;99801.75;5017325;28;45674;-54
2021/10/31 06:29:17;;;;;;;;;3.50;3.50;;;;;20.81;46.44;99801.75;5017561;28;45350;-58
2021/10/31 06:31:43;;;;;;;;;2.50;2.50;;;;;20.80;46.38;99800.94;5017012;28;47294;-61
2021/10/31 06:34:08;;;;;;;;;3.75;3.25;;;;;20.80;46.34;99795.66;5017406;28;45175;-61
2021/10/31 06:36:34;;;;;;;;;2.25;2.25;;;;;20.81;46.32;99796.50;5017289;28;45389;-61
2021/10/31 06:38:59;;;;;;;;;3.25;3.25;;;;;20.80;46.49;99779.84;5017498;28;45646;-61
2021/10/31 06:41:25;;;;;;;;;3.75;3.75;;;;;20.80;46.72;99774.59;5017050;28;46343;-56
2021/10/31 06:43:51;;;;;;;;;4.00;3.25;;;;;20.80;46.70;99771.09;4999259;28;45314;-58
2021/10/31 06:46:16;;;;;;;;;2.50;2.50;;;;;20.81;46.75;99764.88;5017450;28;45238;-58
2021/10/31 06:48:42;;;;;;;;;3.00;3.00;;;;;20.78;46.95;99759.88;5017402;28;45611;-48
2021/10/31 06:51:07;;;;;;;;;2.00;2.00;;;;;20.78;46.51;99755.44;4999362;28;48297;-60
2021/10/31 06:53:33;;;;;;;;;2.00;2.00;;;;;20.78;46.64;99759.88;5017051;28;45484;-53
2021/10/31 06:55:59;;;;;;;;;3.25;3.00;;;;;20.79;46.53;99764.16;5016648;28;45509;-46
2021/10/31 06:58:24;;;;;;;;;3.25;3.25;;;;;20.78;46.53;99759.88;5017092;28;45345;-61
2021/10/31 07:00:50;;;;;;;;;3.00;3.00;;;;;20.80;46.80;99760.56;5016502;28;45468;-56
2021/10/31 07:03:15;;;;;;;;;6.00;4.25;;;;;20.77;46.88;99752.91;5016506;28;45529;-51
2021/10/31 07:05:40;;;;;;;;;3.25;3.25;;;;;20.77;46.59;99747.66;5017012;28;45357;-60
2021/10/31 07:08:06;;;;;;;;;4.50;3.00;;;;;20.76;46.41;99733.63;5017037;28;45505;-60
2021/10/31 07:10:31;;;;;;;;;4.25;2.00;;;;;20.77;46.93;99727.41;4982271;28;46425;-61
2021/10/31 07:12:56;;;;;;;;;2.00;2.00;;;;;20.77;46.63;99719.50;5016547;28;45297;-59
2021/10/31 07:15:22;;;;;;;;;2.50;2.25;;;;;20.76;47.00;99720.47;5016584;28;45428;-59
2021/10/31 07:17:48;;;;;;;;;2.25;2.25;;;;;20.77;47.03;99731.84;5016507;28;45388;-61
2021/10/31 07:20:14;;;;;;;;;3.00;3.00;;;;;20.77;46.51;99737.94;5016071;28;47371;-61
2021/10/31 07:22:42;;;;;;;;;3.50;2.00;;;;;20.78;46.55;99728.28;5016247;28;45389;-60
2021/10/31 07:25:09;;;;;;;;;2.00;2.00;;;;;20.77;46.65;99726.59;5016809;28;45470;-61
2021/10/31 07:27:35;;;;;;;;;3.00;2.00;;;;;20.77;46.69;99721.31;5015232;28;45565;-61
2021/10/31 07:30:01;;;;;;;;;2.75;2.75;;;;;20.78;46.76;99728.28;5016096;28;46319;-61
2021/10/31 07:32:27;;;;;;;;;4.00;3.50;;;;;20.77;46.79;99727.41;5015371;28;45859;-57
2021/10/31 07:34:53;;;;;;;;;2.25;2.25;;;;;20.76;46.62;99724.91;5016030;28;45286;-60
2021/10/31 07:37:18;;;;;;;;;2.00;2.00;;;;;20.76;46.92;99714.38;5016435;28;45442;-60
2021/10/31 07:39:45;;;;;;;;;2.75;2.75;;;;;20.76;46.87;99711.72;5015991;28;47246;-60
2021/10/31 07:42:10;;;;;;;;;2.25;2.25;;;;;20.74;46.60;99709.19;4998616;28;45282;-54
2021/10/31 07:44:36;;;;;;;;;2.00;2.00;;;;;20.74;46.73;99709.19;5016033;28;45315;-56
2021/10/31 07:47:01;;;;;;;;;3.00;3.00;;;;;20.74;47.16;99716.25;5016080;28;45401;-48
2021/10/31 07:49:27;;;;;;;;;4.75;3.50;;;;;20.75;46.90;99724.03;5015703;28;46131;-58
2021/10/31 07:51:53;;;;;;;;;4.50;3.00;;;;;20.76;46.79;99722.28;5015924;28;45274;-59
2021/10/31 07:54:24;;;;;;;;;4.00;2.75;;;;;20.74;47.03;99705.72;5016081;28;45552;-60
2021/10/31 07:56:51;;;;;;;;;4.25;2.00;;;;;20.74;47.01;99703.06;5015899;28;45403;-61
2021/10/31 07:59:17;;;;;;;;;6.00;4.25;;;;;20.73;47.10;99693.50;5015765;28;46561;-60
2021/10/31 08:01:42;;;;;;;;;3.75;3.00;;;;;20.75;46.89;99696.88;5016205;28;45361;-59
2021/10/31 08:04:08;;;;;;;;;3.25;3.25;;;;;20.76;46.82;99698.56;5015772;28;45579;-57
2021/10/31 08:06:34;;;;;;;;;2.00;2.00;;;;;20.74;47.00;99684.66;5016178;28;45560;-47
2021/10/31 08:08:59;;;;;;;;;4.50;4.50;;;;;20.74;46.82;99679.38;5015735;28;46466;-55
2021/10/31 08:11:24;;;;;;;;;2.25;2.25;;;;;20.72;46.88;99679.50;5015868;28;45352;-45
2021/10/31 08:13:50;;;;;;;;;3.00;3.00;;;;;20.74;47.27;99668.84;5016010;28;45377;-44
2021/10/31 08:16:16;;;;;;;;;6.00;4.00;;;;;20.73;46.99;99667.16;5016003;28;45460;-51
2021/10/31 08:18:41;;;;;;;;;5.00;2.00;;;;;20.72;46.84;99673.38;5015634;28;46047;-50
2021/10/31 08:21:08;;;;;;;;;4.50;3.25;;;;;20.71;47.11;99669.91;5015608;28;45428;-61
2021/10/31 08:23:34;;;;;;;;;3.75;3.75;;;;;20.72;46.80;99652.31;5015710;28;45195;-55
2021/10/31 08:26:00;;;;;;;;;4.00;4.00;;;;;20.72;46.84;99649.69;4998158;28;45552;-60
2021/10/31 08:28:26;;;;;;;;;3.00;3.00;;;;;20.70;46.86;99653.25;5015343;28;46086;-57
2021/10/31 08:30:58;;;;;;;;;3.50;3.50;;;;;20.68;46.85;99647.28;5015574;28;45392;-60
2021/10/31 08:33:28;;;;;;;;;5.00;3.75;;;;;20.50;47.13;99651.28;5015486;28;45417;-60
2021/10/31 08:35:54;;;;;;;;;4.50;4.50;;;;;20.33;47.68;99649.91;5017894;28;45687;-61
2021/10/31 08:38:20;;;;;;;;;7.00;4.00;;;;;20.16;47.94;99641.47;5018841;28;46524;-60
2021/10/31 08:40:50;;;;;;;;;4.00;4.00;;;;;20.04;47.85;99629.19;5019433;28;45934;-48
2021/10/31 08:43:16;;;;;;;;;7.00;5.75;;;;;19.91;47.82;99614.28;5019470;28;45345;-61
2021/10/31 08:45:42;;;;;;;;;5.25;5.25;;;;;19.82;48.21;99616.69;5019219;28;45245;-59
2021/10/31 08:48:09;;;;;;;;;8.25;4.25;;;;;19.73;48.66;99610.34;5018841;28;45616;-60
2021/10/31 08:50:35;;;;;;;;;5.50;5.00;;;;;19.62;48.67;99611.09;5000972;28;46537;-60
2021/10/31 08:53:00;;;;;;;;;3.50;3.50;;;;;19.58;48.82;99607.84;5018976;28;45372;-56
2021/10/31 08:55:26;;;;;;;;;3.50;3.50;;;;;19.63;49.13;99605.72;5017178;28;45850;-58
2021/10/31 08:57:52;;;;;;;;;3.25;3.25;;;;;19.68;49.27;99591.41;5017839;28;45618;-57
2021/10/31 09:00:17;;;;;;;;;4.00;3.00;;;;;19.72;48.98;99583.19;5000431;28;45524;-53
2021/10/31 09:02:44;;;;;;;;;4.00;4.00;;;;;19.82;48.86;99578.13;5019102;28;45420;-57
2021/10/31 09:05:09;;;;;;;;;3.00;3.00;;;;;19.89;48.98;99570.66;5018828;28;45564;-51
2021/10/31 09:07:35;;;;;;;;;4.00;4.00;;;;;19.96;48.66;99569.25;5017542;28;45624;-60
2021/10/31 09:10:02;;;;;;;;;3.75;3.00;;;;;20.01;48.43;99563.66;5018179;28;45411;-56
2021/10/31 09:12:27;;;;;;;;;3.00;3.00;;;;;20.05;48.34;99563.31;5018268;28;45436;-57
2021/10/31 09:14:53;;;;;;;;;3.50;3.00;;;;;20.10;48.94;99549.81;5018717;28;45687;-58
2021/10/31 09:17:18;;;;;;;;;4.25;3.00;;;;;20.15;48.48;99552.09;5016802;28;48122;-59
2021/10/31 09:19:44;;;;;;;;;4.00;4.00;;;;;20.19;48.77;99537.78;5018614;28;45389;-52
2021/10/31 09:22:10;;;;;;;;;3.00;3.00;;;;;20.22;48.48;99519.16;5018302;28;45339;-59
2021/10/31 09:24:36;;;;;;;;;2.75;2.75;;;;;20.26;48.40;99522.38;5018440;28;45296;-59
2021/10/31 09:27:03;;;;;;;;;3.25;3.00;;;;;20.28;48.23;99521.31;5017827;28;46395;-60
2021/10/31 09:29:29;;;;;;;;;3.00;3.00;;;;;20.31;48.31;99523.72;5017793;28;45210;-58
2021/10/31 09:31:55;;;;;;;;;4.25;4.00;;;;;20.33;48.17;99527.06;5016865;28;45420;-56
2021/10/31 09:34:22;;;;;;;;;3.00;3.00;;;;;20.36;48.36;99526.00;5018225;28;45568;-59
2021/10/31 09:36:47;;;;;;;;;3.25;2.50;;;;;20.38;47.99;99532.81;5018131;28;46587;-54
2021/10/31 09:39:13;;;;;;;;;3.00;3.00;;;;;20.41;47.99;99525.66;5017935;28;45477;-61
2021/10/31 09:41:38;;;;;;;;;7.75;4.25;;;;;20.43;48.08;99518.47;5017963;28;45429;-56
2021/10/31 09:46:38;;;;;;;;;3.00;3.00;;;;;20.46;48.53;99498.03;5017324;28;45979;-59
2021/10/31 09:49:04;;;;;;;;;2.25;2.00;;;;;20.47;48.11;99490.97;5017825;28;45447;-61
2021/10/31 09:51:31;;;;;;;;;3.00;3.00;;;;;20.50;48.41;99482.84;5017756;28;45408;-56
2021/10/31 09:53:59;;;;;;;;;2.00;2.00;;;;;20.50;48.06;99473.16;5017837;28;45415;-56
2021/10/31 09:56:24;;;;;;;;;3.00;3.00;;;;;20.51;48.22;99484.50;5017197;28;45443;-55
2021/10/31 09:58:52;;;;;;;;;4.00;3.00;;;;;20.53;48.58;99478.16;5017446;28;45495;-51
2021/10/31 10:01:51;;;;;;;;;3.00;3.00;;;;;20.53;48.06;99466.81;5017895;28;45428;-57
2021/10/31 10:04:34;;;;;;;;;3.00;3.00;;;;;20.54;48.02;99450.06;5018212;28;45414;-58
2021/10/31 10:07:01;;;;;;;;;4.25;2.75;;;;;20.55;47.93;99460.47;5017246;28;46521;-58
2021/10/31 10:09:29;;;;;;;;;4.00;2.75;;;;;20.55;47.92;99449.94;5017277;28;45405;-58
2021/10/31 10:11:56;;;;;;;;;4.25;2.50;;;;;20.58;47.94;99446.22;5017328;28;45391;-58
2021/10/31 10:14:25;;;;;;;;;4.00;3.00;;;;;20.59;48.28;99445.28;5017775;28;45309;-58
2021/10/31 10:16:59;;;;;;;;;3.25;2.50;;;;;20.57;48.06;99444.53;5017143;28;45478;-57
2021/10/31 10:19:30;;;;;;;;;2.00;2.00;;;;;20.61;47.86;99435.47;5017094;28;45285;-57
2021/10/31 10:22:00;;;;;;;;;2.75;2.00;;;;;20.63;48.13;99430.06;5017175;28;45368;-55
2021/10/31 10:24:28;;;;;;;;;2.00;2.00;;;;;20.62;47.79;99429.25;5017434;28;45324;-50
2021/10/31 10:27:02;;;;;;;;;2.50;2.50;;;;;20.63;47.85;99409.00;5016814;28;46646;-45
2021/10/31 10:29:39;;;;;;;;;3.00;3.00;;;;;20.65;47.88;99412.38;5013569;28;45893;-53
2021/10/31 10:32:18;;;;;;;;;2.25;2.25;;;;;20.65;48.14;99401.84;5014855;28;45359;-51
2021/10/31 10:34:49;;;;;;;;;2.25;2.25;;;;;20.69;47.88;99395.38;5017489;28;45428;-56
2021/10/31 10:37:17;;;;;;;;;2.00;2.00;;;;;20.71;48.04;99393.47;5017183;28;46236;-57
2021/10/31 10:39:45;;;;;;;;;4.00;2.50;;;;;20.69;47.86;99398.84;5017019;28;45803;-51
2021/10/31 10:42:19;;;;;;;;;2.00;2.00;;;;;20.76;48.25;99398.41;4999112;28;45457;-57
2021/10/31 10:44:45;;;;;;;;;2.75;2.75;;;;;20.76;47.96;99382.59;5017281;28;45523;-59
2021/10/31 10:47:18;;;;;;;;;5.00;2.50;;;;;20.77;48.13;99385.09;5016773;28;46575;-56
2021/10/31 10:49:46;;;;;;;;;2.00;2.00;;;;;20.78;47.84;99375.44;4999203;28;45929;-60
2021/10/31 10:52:41;;;;;;;;;3.00;2.00;;;;;20.81;48.13;99375.16;5016867;28;45368;-56
2021/10/31 10:55:11;;;;;;;;;2.75;2.25;;;;;20.82;48.08;99382.97;4998966;28;45400;-56
2021/10/31 10:57:40;;;;;;;;;3.00;1.50;;;;;20.85;48.32;99368.69;4998088;28;47401;-62
2021/10/31 11:00:11;;;;;;;;;3.00;2.00;;;;;20.84;48.08;99359.13;5016474;28;45841;-56
2021/10/31 11:02:37;;;;;;;;;2.25;2.25;;;;;20.85;48.11;99368.69;5016770;28;45361;-62
2021/10/31 11:05:07;;;;;;;;;2.00;1.75;;;;;20.87;48.18;99372.06;5016680;28;45405;-59
2021/10/31 11:07:37;;;;;;;;;2.00;2.00;;;;;20.88;48.05;99354.44;5016210;28;45350;-54
2021/10/31 11:10:07;;;;;;;;;4.00;2.00;;;;;20.88;47.99;99368.47;5016392;28;45293;-60
2021/10/31 11:12:35;;;;;;;;;2.50;1.00;;;;;20.89;48.43;99372.75;5016384;28;45338;-61
2021/10/31 11:15:10;;;;;;;;;1.50;1.50;;;;;20.91;48.52;99377.91;5016890;28;45306;-61
2021/10/31 11:17:37;;;;;;;;;2.50;2.50;;;;;20.91;48.13;99365.56;5016236;28;45560;-58
2021/10/31 11:20:04;;;;;;;;;4.00;2.75;;;;;20.91;48.61;99344.50;5016045;28;45377;-57
2021/10/31 11:22:31;;;;;;;;;1.50;1.50;;;;;20.92;48.05;99351.44;5016640;28;45479;-52
2021/10/31 11:24:59;;;;;;;;;2.00;2.00;;;;;20.94;48.52;99346.06;4998596;28;45567;-56
2021/10/31 11:27:27;;;;;;;;;2.00;2.00;;;;;20.94;48.71;99346.88;5016208;28;45454;-54
2021/10/31 11:29:55;;;;;;;;;2.75;1.50;;;;;20.94;48.47;99330.25;5016019;28;45711;-51
2021/10/31 11:32:22;;;;;;;;;1.75;1.75;;;;;20.94;48.37;99346.88;5016390;28;45441;-61
2021/10/31 11:34:50;;;;;;;;;1.75;1.75;;;;;20.95;48.51;99330.13;5016819;28;45429;-50
2021/10/31 11:37:20;;;;;;;;;2.00;2.00;;;;;20.94;48.54;99317.91;5015835;28;45508;-51
2021/10/31 11:39:46;;;;;;;;;2.00;2.00;;;;;20.96;48.38;99321.25;4998354;28;45850;-51